createdAt,value
2023-03-21T00:00:54.203Z,64.72
2023-03-21T00:03:24.272Z,64.66
2023-03-21T00:05:54.088Z,64.40
2023-03-21T00:08:23.335Z,64.61
2023-03-21T00:10:59.498Z,64.86
2023-03-21T00:13:28.422Z,65.17
2023-03-21T00:16:06.915Z,65.40
2023-03-21T00:18:49.117Z,65.29
2023-03-21T00:21:43.973Z,65.13
2023-03-21T00:24:08.234Z,64.72
2023-03-21T00:26:36.510Z,64.47
2023-03-21T00:29:05.071Z,64.59
2023-03-21T00:31:33.138Z,64.62
2023-03-21T00:34:02.117Z,64.71
2023-03-21T00:36:32.649Z,65.28
2023-03-21T00:39:05.040Z,65.17
2023-03-21T00:41:42.512Z,65.25
2023-03-21T00:44:16.029Z,64.92
2023-03-21T00:46:57.101Z,65.11
2023-03-21T00:49:34.179Z,65.57
2023-03-21T00:52:27.536Z,65.14
2023-03-21T00:54:55.002Z,64.91
2023-03-21T00:57:37.618Z,65.00
2023-03-21T01:00:10.655Z,65.23
2023-03-21T01:03:02.613Z,65.17
2023-03-21T01:05:54.754Z,64.88
2023-03-21T01:08:29.331Z,65.33
2023-03-21T01:11:02.164Z,65.73
2023-03-21T01:13:33.106Z,65.62
2023-03-21T01:16:05.623Z,65.53
2023-03-21T01:18:35.401Z,65.57
2023-03-21T01:21:06.751Z,65.53
2023-03-21T01:23:35.242Z,65.55
2023-03-21T01:26:06.827Z,65.87
2023-03-21T01:28:45.134Z,65.33
2023-03-21T01:31:14.909Z,65.32
2023-03-21T01:33:43.825Z,65.29
2023-03-21T01:36:16.547Z,65.73
2023-03-21T01:38:46.113Z,65.71
2023-03-21T01:41:33.526Z,65.86
2023-03-21T01:44:06.224Z,65.32
2023-03-21T01:47:03.609Z,65.62
2023-03-21T01:49:51.316Z,65.38
2023-03-21T01:52:39.353Z,65.47
2023-03-21T01:55:13.408Z,65.73
2023-03-21T01:58:07.284Z,65.92
2023-03-21T02:01:03.633Z,65.97
2023-03-21T02:03:50.552Z,65.83
2023-03-21T02:06:47.073Z,65.24
2023-03-21T02:09:37.242Z,65.48
2023-03-21T02:12:08.936Z,65.54
2023-03-21T02:14:38.609Z,65.57
2023-03-21T02:17:17.122Z,65.73
2023-03-21T02:19:59.011Z,65.41
2023-03-21T02:22:31.084Z,64.98
2023-03-21T02:25:04.418Z,65.31
2023-03-21T02:27:43.619Z,65.04
2023-03-21T02:30:17.374Z,65.49
2023-03-21T02:32:48.906Z,66.03
2023-03-21T02:35:41.540Z,66.04
2023-03-21T02:38:19.087Z,66.27
2023-03-21T02:41:19.631Z,66.53
2023-03-21T02:43:59.471Z,66.67
2023-03-21T02:46:33.426Z,66.37
2023-03-21T02:49:20.188Z,66.62
2023-03-21T02:51:51.135Z,66.83
2023-03-21T02:54:34.859Z,66.81
2023-03-21T02:57:07.867Z,66.58
2023-03-21T02:59:44.490Z,66.79
2023-03-21T03:02:23.363Z,67.42
2023-03-21T03:04:51.631Z,67.49
2023-03-21T03:07:27.798Z,67.49
2023-03-21T03:10:03.059Z,67.42
2023-03-21T03:12:47.795Z,67.62
2023-03-21T03:15:35.285Z,67.65
2023-03-21T03:18:24.267Z,67.74
2023-03-21T03:20:58.147Z,67.71
2023-03-21T03:23:26.668Z,68.18
2023-03-21T03:26:03.071Z,69.18
2023-03-21T03:28:36.717Z,69.19
2023-03-21T03:31:10.213Z,69.03
2023-03-21T03:33:47.212Z,68.91
2023-03-21T03:36:33.601Z,68.93
2023-03-21T03:39:10.583Z,70.14
2023-03-21T03:42:12.536Z,69.65
2023-03-21T03:44:52.522Z,69.74
2023-03-21T03:47:32.867Z,69.89
2023-03-21T03:50:09.314Z,70.00
2023-03-21T03:52:50.074Z,69.80
2023-03-21T03:55:27.301Z,69.95
2023-03-21T03:57:57.289Z,69.80
2023-03-21T04:00:27.305Z,69.89
2023-03-21T04:02:55.721Z,69.59
2023-03-21T04:05:25.200Z,69.82
2023-03-21T04:07:54.760Z,69.73
2023-03-21T04:10:29.853Z,69.46
2023-03-21T04:12:58.343Z,69.32
2023-03-21T04:15:46.219Z,69.20
2023-03-21T04:18:17.223Z,69.51
2023-03-21T04:20:46.176Z,69.37
2023-03-21T04:23:14.500Z,69.77
2023-03-21T04:25:55.842Z,69.55
2023-03-21T04:28:27.807Z,69.53
2023-03-21T04:31:25.247Z,69.64
2023-03-21T04:34:00.832Z,69.68
2023-03-21T04:36:30.956Z,69.85
2023-03-21T04:39:01.719Z,69.71
2023-03-21T04:41:31.225Z,69.70
2023-03-21T04:43:59.693Z,69.77
2023-03-21T04:46:28.910Z,70.26
2023-03-21T04:48:57.174Z,70.24
2023-03-21T04:51:25.462Z,70.75
2023-03-21T04:53:57.731Z,71.78
2023-03-21T04:56:32.968Z,72.16
2023-03-21T04:59:03.057Z,72.33
2023-03-21T05:01:31.240Z,72.00
2023-03-21T05:04:03.909Z,72.07
2023-03-21T05:06:33.789Z,71.93
2023-03-21T05:09:05.656Z,72.01
2023-03-21T05:11:38.520Z,71.98
2023-03-21T05:14:09.058Z,71.89
2023-03-21T05:16:48.889Z,71.71
2023-03-21T05:19:20.866Z,71.75
2023-03-21T05:21:50.499Z,71.50
2023-03-21T05:24:22.545Z,71.39
2023-03-21T05:26:52.552Z,70.86
2023-03-21T05:29:24.229Z,71.10
2023-03-21T05:31:58.961Z,71.06
2023-03-21T05:34:28.143Z,71.15
2023-03-21T05:36:56.838Z,71.03
2023-03-21T05:39:27.384Z,70.69
2023-03-21T05:42:02.628Z,70.50
2023-03-21T05:44:32.034Z,70.31
2023-03-21T05:47:01.373Z,70.33
2023-03-21T05:49:40.267Z,70.21
2023-03-21T05:52:09.976Z,70.16
2023-03-21T05:54:42.327Z,70.01
2023-03-21T05:57:17.617Z,69.75
2023-03-21T06:00:32.040Z,69.63
2023-03-21T06:03:10.959Z,69.80
2023-03-21T06:05:55.412Z,69.68
2023-03-21T06:08:25.852Z,69.89
2023-03-21T06:10:55.753Z,69.75
2023-03-21T06:13:24.446Z,69.97
2023-03-21T06:15:52.865Z,69.83
2023-03-21T06:18:25.020Z,70.18
2023-03-21T06:21:01.000Z,70.00
2023-03-21T06:23:29.243Z,70.18
2023-03-21T06:25:57.833Z,69.95
2023-03-21T06:28:27.240Z,70.08
2023-03-21T06:30:56.165Z,69.75
2023-03-21T06:33:27.279Z,69.78
2023-03-21T06:35:56.612Z,69.83
2023-03-21T06:38:25.890Z,69.51
2023-03-21T06:40:54.966Z,69.42
2023-03-21T06:43:25.011Z,69.32
2023-03-21T06:45:53.410Z,69.31
2023-03-21T06:48:22.230Z,69.34
2023-03-21T06:50:52.416Z,69.12
2023-03-21T06:53:24.687Z,69.27
2023-03-21T06:56:12.414Z,69.31
2023-03-21T06:58:42.953Z,68.94
2023-03-21T07:01:17.745Z,68.99
2023-03-21T07:03:59.377Z,68.94
2023-03-21T07:06:28.778Z,68.88
2023-03-21T07:08:57.310Z,68.73
2023-03-21T07:11:26.470Z,68.81
2023-03-21T07:13:55.052Z,68.47
2023-03-21T07:16:25.288Z,68.16
2023-03-21T07:18:53.982Z,68.19
2023-03-21T07:21:22.770Z,68.12
2023-03-21T07:23:51.042Z,67.69
2023-03-21T07:26:19.119Z,67.43
2023-03-21T07:28:47.721Z,67.20
2023-03-21T07:31:17.540Z,67.12
2023-03-21T07:33:46.429Z,66.88
2023-03-21T07:36:15.804Z,66.66
2023-03-21T07:38:45.721Z,66.75
2023-03-21T07:43:47.430Z,66.50
2023-03-21T07:46:16.284Z,66.32
2023-03-21T07:48:44.914Z,65.91
2023-03-21T07:51:13.504Z,65.77
2023-03-21T07:53:42.153Z,64.22
2023-03-21T07:56:10.576Z,64.28
2023-03-21T07:58:38.758Z,63.82
2023-03-21T08:01:07.043Z,61.83
2023-03-21T08:03:35.408Z,62.22
2023-03-21T08:06:03.810Z,61.10
2023-03-21T08:08:35.835Z,60.59
2023-03-21T08:11:04.771Z,59.86
2023-03-21T08:13:33.770Z,60.00
2023-03-21T08:16:01.959Z,59.95
2023-03-21T08:18:30.810Z,59.25
2023-03-21T08:20:59.231Z,59.56
2023-03-21T08:23:27.418Z,59.36
2023-03-21T08:25:56.103Z,58.11
2023-03-21T08:28:24.935Z,57.32
2023-03-21T08:30:53.442Z,57.47
2023-03-21T08:33:21.773Z,57.35
2023-03-21T08:35:49.973Z,56.00
2023-03-21T08:38:18.234Z,55.90
2023-03-21T08:40:46.513Z,55.84
2023-03-21T08:43:15.005Z,54.37
2023-03-21T08:45:43.382Z,53.97
2023-03-21T08:48:11.919Z,54.25
2023-03-21T08:50:40.661Z,53.62
2023-03-21T08:53:09.153Z,51.94
2023-03-21T08:55:38.431Z,50.16
2023-03-21T08:58:07.554Z,49.86
2023-03-21T09:00:36.039Z,49.48
2023-03-21T09:03:05.314Z,49.26
2023-03-21T09:05:33.952Z,48.23
2023-03-21T09:08:03.563Z,48.42
2023-03-21T09:10:32.239Z,46.53
2023-03-21T09:13:01.034Z,46.37
2023-03-21T09:15:30.048Z,45.92
2023-03-21T09:18:15.913Z,43.57
2023-03-21T09:20:46.965Z,44.15
2023-03-21T09:23:15.558Z,44.44
2023-03-21T09:25:45.371Z,44.60
2023-03-21T09:28:14.270Z,44.51
2023-03-21T09:30:42.756Z,42.84
2023-03-21T09:33:13.417Z,41.85
2023-03-21T09:35:42.970Z,41.47
2023-03-21T09:38:11.381Z,39.36
2023-03-21T09:40:45.804Z,38.86
2023-03-21T09:43:14.086Z,38.92
2023-03-21T09:46:05.524Z,38.47
2023-03-21T09:48:50.534Z,37.51
2023-03-21T09:51:27.342Z,34.99
2023-03-21T09:53:57.861Z,35.48
2023-03-21T09:56:26.349Z,36.13
2023-03-21T09:58:58.939Z,35.23
2023-03-21T10:01:30.106Z,36.46
2023-03-21T10:04:01.131Z,35.15
2023-03-21T10:06:30.726Z,33.41
2023-03-21T10:09:06.900Z,33.52
2023-03-21T10:11:44.281Z,33.07
2023-03-21T10:14:16.762Z,32.35
2023-03-21T10:16:48.984Z,32.28
2023-03-21T10:19:18.562Z,31.41
2023-03-21T10:22:00.174Z,29.31
2023-03-21T10:24:31.869Z,28.76
2023-03-21T10:27:01.513Z,27.60
2023-03-21T10:29:33.134Z,28.31
2023-03-21T10:32:01.736Z,27.32
2023-03-21T10:34:37.307Z,28.08
2023-03-21T10:37:06.551Z,27.35
2023-03-21T10:39:39.202Z,26.31
2023-03-21T10:42:13.731Z,27.38
2023-03-21T10:44:47.246Z,28.06
2023-03-21T10:47:21.017Z,26.13
2023-03-21T10:52:38.903Z,25.62
2023-03-21T10:55:16.061Z,27.07
2023-03-21T10:57:46.250Z,26.85
2023-03-21T11:00:23.227Z,26.57
2023-03-21T11:02:53.426Z,27.47
2023-03-21T11:05:24.649Z,25.98
2023-03-21T11:08:12.972Z,26.60
2023-03-21T11:10:52.929Z,27.03
2023-03-21T11:13:25.910Z,26.33
2023-03-21T11:15:56.139Z,27.02
2023-03-21T11:18:25.648Z,26.81
2023-03-21T11:20:58.755Z,25.87
2023-03-21T11:23:29.075Z,25.67
2023-03-21T11:25:59.304Z,25.88
2023-03-21T11:28:34.235Z,25.59
2023-03-21T11:31:03.792Z,25.70
2023-03-21T11:33:34.324Z,25.34
2023-03-21T11:36:08.084Z,25.59
2023-03-21T11:38:37.895Z,25.86
2023-03-21T11:41:06.695Z,26.59
2023-03-21T11:43:38.981Z,26.42
2023-03-21T11:46:09.727Z,25.34
2023-03-21T11:48:42.595Z,25.50
2023-03-21T11:51:17.008Z,25.93
2023-03-21T11:53:57.281Z,26.36
2023-03-21T11:56:49.490Z,26.42
2023-03-21T11:59:36.609Z,25.30
2023-03-21T12:02:28.995Z,25.38
2023-03-21T12:05:04.274Z,25.76
2023-03-21T12:07:40.642Z,26.26
2023-03-21T12:10:08.721Z,25.77
2023-03-21T12:12:57.878Z,25.62
2023-03-21T12:15:31.384Z,25.15
2023-03-21T12:17:59.452Z,24.68
2023-03-21T12:20:42.785Z,24.70
2023-03-21T12:23:23.600Z,24.34
2023-03-21T12:26:01.250Z,23.60
2023-03-21T12:28:40.103Z,23.75
2023-03-21T12:31:17.507Z,23.15
2023-03-21T12:34:08.382Z,23.47
2023-03-21T12:36:36.859Z,22.02
2023-03-21T12:39:14.839Z,21.42
2023-03-21T12:41:42.916Z,21.44
2023-03-21T12:44:20.520Z,22.27
2023-03-21T12:46:56.325Z,21.06
2023-03-21T12:49:27.824Z,21.01
2023-03-21T12:52:00.000Z,20.26
2023-03-21T12:54:31.247Z,20.32
2023-03-21T12:57:21.622Z,20.31
2023-03-21T13:00:13.761Z,19.60
2023-03-21T13:03:03.109Z,19.75
2023-03-21T13:05:33.853Z,19.07
2023-03-21T13:08:04.893Z,19.22
2023-03-21T13:10:34.101Z,18.07
2023-03-21T13:13:07.843Z,18.56
2023-03-21T13:15:52.631Z,18.00
2023-03-21T13:18:26.988Z,17.42
2023-03-21T13:20:57.010Z,17.83
2023-03-21T13:23:26.110Z,17.45
2023-03-21T13:25:55.885Z,17.79
2023-03-21T13:28:29.036Z,17.65
2023-03-21T13:31:51.003Z,17.37
2023-03-21T13:34:23.906Z,17.59
2023-03-21T13:36:52.916Z,17.60
2023-03-21T13:39:25.374Z,17.57
2023-03-21T13:41:54.894Z,17.73
2023-03-21T13:44:24.025Z,17.68
2023-03-21T13:46:59.521Z,17.48
2023-03-21T13:49:37.753Z,16.14
2023-03-21T13:52:12.287Z,15.83
2023-03-21T13:54:48.342Z,16.30
2023-03-21T13:57:22.470Z,16.48
2023-03-21T14:00:10.672Z,14.56
2023-03-21T14:02:51.004Z,14.46
2023-03-21T14:05:22.164Z,14.83
2023-03-21T14:07:54.753Z,15.46
2023-03-21T14:10:35.457Z,15.83
2023-03-21T14:13:07.914Z,15.84
2023-03-21T14:15:55.394Z,15.10
2023-03-21T14:18:52.290Z,15.33
2023-03-21T14:21:24.220Z,15.07
2023-03-21T14:24:00.027Z,15.49
2023-03-21T14:26:30.834Z,16.04
2023-03-21T14:28:59.728Z,15.77
2023-03-21T14:31:28.026Z,15.48
2023-03-21T14:33:58.234Z,15.49
2023-03-21T14:36:28.526Z,15.32
2023-03-21T14:39:04.829Z,15.36
2023-03-21T14:41:34.749Z,15.01
2023-03-21T14:44:04.459Z,14.75
2023-03-21T14:46:33.864Z,15.31
2023-03-21T14:49:34.485Z,15.47
2023-03-21T14:52:06.706Z,15.98
2023-03-21T14:54:36.637Z,15.47
2023-03-21T14:57:08.339Z,16.27
2023-03-21T14:59:38.358Z,16.34
2023-03-21T15:02:15.697Z,16.70
2023-03-21T15:04:45.797Z,16.47
2023-03-21T15:07:24.487Z,16.97
2023-03-21T15:09:57.093Z,17.69
2023-03-21T15:12:26.060Z,18.12
2023-03-21T15:14:54.943Z,18.51
2023-03-21T15:17:24.678Z,19.28
2023-03-21T15:19:53.166Z,19.35
2023-03-21T15:22:27.891Z,19.75
2023-03-21T15:24:59.259Z,20.82
2023-03-21T15:27:29.878Z,21.13
2023-03-21T15:29:58.062Z,21.36
2023-03-21T15:32:27.674Z,22.34
2023-03-21T15:35:04.040Z,22.80
2023-03-21T15:37:34.674Z,23.00
2023-03-21T15:40:15.847Z,23.61
2023-03-21T15:42:44.552Z,24.64
2023-03-21T15:45:21.937Z,25.69
2023-03-21T15:47:51.843Z,26.01
2023-03-21T15:50:26.696Z,26.40
2023-03-21T15:52:56.108Z,26.82
2023-03-21T15:55:28.769Z,27.07
2023-03-21T15:58:05.040Z,27.09
2023-03-21T16:00:40.372Z,26.79
2023-03-21T16:03:34.950Z,27.83
2023-03-21T16:06:03.652Z,28.09
2023-03-21T16:08:36.965Z,28.52
2023-03-21T16:11:28.766Z,29.07
2023-03-21T16:13:57.358Z,29.74
2023-03-21T16:16:26.745Z,30.18
2023-03-21T16:18:57.005Z,30.72
2023-03-21T16:21:27.002Z,31.15
2023-03-21T16:23:56.281Z,31.54
2023-03-21T16:26:26.444Z,31.84
2023-03-21T16:28:54.520Z,31.97
2023-03-21T16:31:24.124Z,31.50
2023-03-21T16:33:53.230Z,32.41
2023-03-21T16:36:23.558Z,33.28
2023-03-21T16:38:55.420Z,32.97
2023-03-21T16:41:24.292Z,33.20
2023-03-21T16:43:53.651Z,33.02
2023-03-21T16:46:23.957Z,33.94
2023-03-21T16:48:53.560Z,34.01
2023-03-21T16:53:51.661Z,34.53
2023-03-21T16:56:25.686Z,35.17
2023-03-21T16:58:54.579Z,35.37
2023-03-21T17:01:27.605Z,35.93
2023-03-21T17:03:57.992Z,35.55
2023-03-21T17:06:30.362Z,35.26
2023-03-21T17:08:59.260Z,35.55
2023-03-21T17:11:33.067Z,36.23
2023-03-21T17:14:01.250Z,35.98
2023-03-21T17:16:29.860Z,37.14
2023-03-21T17:18:58.222Z,37.38
2023-03-21T17:21:27.635Z,37.33
2023-03-21T17:23:56.323Z,37.41
2023-03-21T17:26:26.002Z,38.10
2023-03-21T17:28:55.447Z,37.90
2023-03-21T17:31:25.308Z,38.83
2023-03-21T17:33:53.746Z,39.57
2023-03-21T17:36:27.042Z,39.25
2023-03-21T17:38:55.641Z,38.95
2023-03-21T17:41:24.635Z,39.37
2023-03-21T17:43:53.111Z,39.31
2023-03-21T17:46:25.603Z,39.96
2023-03-21T17:48:54.895Z,40.53
2023-03-21T17:51:26.269Z,40.25
2023-03-21T17:53:56.470Z,39.91
2023-03-21T17:56:31.922Z,40.40
2023-03-21T17:59:02.156Z,40.55
2023-03-21T18:01:36.598Z,40.74
2023-03-21T18:04:05.775Z,40.99
2023-03-21T18:06:34.871Z,41.57
2023-03-21T18:09:07.203Z,42.04
2023-03-21T18:11:35.526Z,42.00
2023-03-21T18:14:15.808Z,42.47
2023-03-21T18:16:45.658Z,43.19
2023-03-21T18:19:14.902Z,43.04
2023-03-21T18:21:45.848Z,42.97
2023-03-21T18:24:15.048Z,43.32
2023-03-21T18:26:44.792Z,43.15
2023-03-21T18:32:08.518Z,43.96
2023-03-21T18:34:39.003Z,43.60
2023-03-21T18:37:08.489Z,43.63
2023-03-21T18:39:37.248Z,43.69
2023-03-21T18:42:05.928Z,44.65
2023-03-21T18:44:39.332Z,46.01
2023-03-21T18:47:08.714Z,46.10
2023-03-21T18:52:27.456Z,47.72
2023-03-21T18:54:56.870Z,48.50
2023-03-21T18:57:36.509Z,49.42
2023-03-21T19:00:13.391Z,49.95
2023-03-21T19:02:53.660Z,50.38
2023-03-21T19:05:27.695Z,50.80
2023-03-21T19:07:56.257Z,51.04
2023-03-21T19:10:24.525Z,50.07
2023-03-21T19:12:55.910Z,49.91
2023-03-21T19:15:25.112Z,49.67
2023-03-21T19:20:47.080Z,50.14
2023-03-21T19:23:17.303Z,50.14
2023-03-21T19:25:46.037Z,49.81
2023-03-21T19:28:14.416Z,50.34
2023-03-21T19:30:49.688Z,51.53
2023-03-21T19:33:20.199Z,50.70
2023-03-21T19:35:49.749Z,50.33
2023-03-21T19:38:17.876Z,50.56
2023-03-21T19:40:46.465Z,50.44
2023-03-21T19:43:32.331Z,51.23
2023-03-21T19:46:01.862Z,51.95
2023-03-21T19:48:30.494Z,53.37
2023-03-21T19:51:36.398Z,53.86
2023-03-21T19:53:50.670Z,54.15
2023-03-21T19:56:23.024Z,53.88
2023-03-21T19:58:52.443Z,54.81
2023-03-21T20:01:20.741Z,55.64
2023-03-21T20:03:49.102Z,56.32
2023-03-21T20:06:17.588Z,57.33
2023-03-21T20:11:34.206Z,58.00
2023-03-21T20:14:03.525Z,57.37
2023-03-21T20:16:35.878Z,56.48
2023-03-21T20:19:06.221Z,56.45
2023-03-21T20:21:44.826Z,56.24
2023-03-21T20:24:16.630Z,56.12
2023-03-21T20:26:45.960Z,56.00
2023-03-21T20:32:02.429Z,56.63
2023-03-21T20:34:31.077Z,58.53
2023-03-21T20:36:59.373Z,58.90
2023-03-21T20:39:29.804Z,58.06
2023-03-21T20:41:59.510Z,58.56
2023-03-21T20:47:17.030Z,60.06
2023-03-21T20:49:45.566Z,61.08
2023-03-21T20:52:54.822Z,60.91
2023-03-21T20:55:03.315Z,60.22
2023-03-21T20:57:34.183Z,59.48
2023-03-21T21:00:08.799Z,58.70
2023-03-21T21:02:37.577Z,58.19
2023-03-21T21:05:37.036Z,57.79
2023-03-21T21:07:56.663Z,57.78
2023-03-21T21:10:25.925Z,57.72
2023-03-21T21:12:54.251Z,57.60
2023-03-21T21:15:22.629Z,57.62
2023-03-21T21:18:05.534Z,57.85
2023-03-21T21:20:35.573Z,57.97
2023-03-21T21:23:03.749Z,57.76
2023-03-21T21:25:33.276Z,57.72
2023-03-21T21:28:02.173Z,57.99
2023-03-21T21:30:32.793Z,58.01
2023-03-21T21:33:01.237Z,58.21
2023-03-21T21:35:29.589Z,58.48
2023-03-21T21:37:57.820Z,59.26
2023-03-21T21:40:26.223Z,60.81
2023-03-21T21:42:54.620Z,61.08
2023-03-21T21:45:23.704Z,61.57
2023-03-21T21:47:52.782Z,61.97
2023-03-21T21:50:22.588Z,61.18
2023-03-21T21:52:53.018Z,62.10
2023-03-21T21:55:21.725Z,61.95
2023-03-21T21:57:53.115Z,63.48
2023-03-21T22:00:21.607Z,62.38
2023-03-21T22:02:50.078Z,61.68
2023-03-21T22:05:19.167Z,61.05
2023-03-21T22:07:52.674Z,60.71
2023-03-21T22:10:22.078Z,60.11
2023-03-21T22:12:53.781Z,60.05
2023-03-21T22:15:22.829Z,59.93
2023-03-21T22:17:51.630Z,59.58
2023-03-21T22:20:20.838Z,59.47
2023-03-21T22:22:49.318Z,59.35
2023-03-21T22:25:18.107Z,59.58
2023-03-21T22:27:46.599Z,59.88
2023-03-21T22:30:17.556Z,59.79
2023-03-21T22:32:51.521Z,59.81
2023-03-21T22:35:24.678Z,60.25
2023-03-21T22:37:52.936Z,60.58
2023-03-21T22:40:21.112Z,60.54
2023-03-21T22:42:49.186Z,60.45
2023-03-21T22:45:17.778Z,60.72
2023-03-21T22:47:46.102Z,60.66
2023-03-21T22:50:14.135Z,60.79
2023-03-21T22:52:42.425Z,61.69
2023-03-21T22:55:12.862Z,63.13
2023-03-21T22:57:41.888Z,63.13
2023-03-21T23:00:13.691Z,62.91
2023-03-21T23:02:42.109Z,62.30
2023-03-21T23:05:11.099Z,62.07
2023-03-21T23:07:39.287Z,61.63
2023-03-21T23:10:07.912Z,61.57
2023-03-21T23:12:37.786Z,61.29
2023-03-21T23:15:07.089Z,61.61
2023-03-21T23:17:35.670Z,61.61
2023-03-21T23:20:08.457Z,61.32
2023-03-21T23:22:37.149Z,61.34
2023-03-21T23:25:05.772Z,61.59
2023-03-21T23:27:37.924Z,61.82
2023-03-21T23:30:07.264Z,61.66
2023-03-21T23:32:35.608Z,61.77
2023-03-21T23:35:04.108Z,62.13
2023-03-21T23:37:32.375Z,62.13
2023-03-21T23:40:00.651Z,62.08
2023-03-21T23:42:29.371Z,62.43
2023-03-21T23:44:58.037Z,63.23
2023-03-21T23:47:26.415Z,63.00
2023-03-21T23:49:55.118Z,62.95
2023-03-21T23:52:23.390Z,64.13
2023-03-21T23:54:52.094Z,64.77
2023-03-21T23:57:20.570Z,64.13
2023-03-21T23:59:48.959Z,63.80
